createdAt,value
2022-11-23T00:05:30.065Z,100
2022-11-23T00:15:30.853Z,100
2022-11-23T00:25:31.223Z,100
2022-11-23T00:35:31.936Z,100
2022-11-23T00:45:32.785Z,100
2022-11-23T00:55:33.195Z,100
2022-11-23T01:05:33.299Z,100
2022-11-23T01:15:34.343Z,100
2022-11-23T01:25:35.266Z,100
2022-11-23T01:35:35.464Z,100
2022-11-23T01:45:35.786Z,100
2022-11-23T01:55:36.714Z,100
2022-11-23T02:05:37.346Z,100
2022-11-23T02:15:37.700Z,100
2022-11-23T02:25:38.399Z,100
2022-11-23T02:35:38.480Z,100
2022-11-23T02:45:39.468Z,100
2022-11-23T02:55:40.469Z,100
2022-11-23T03:05:40.771Z,100
2022-11-23T03:35:41.933Z,100
2022-11-23T04:05:42.702Z,100
2022-11-23T04:15:43.004Z,100
2022-11-23T04:25:43.697Z,100
2022-11-23T04:35:44.532Z,100
2022-11-23T04:45:45.425Z,100
2022-11-23T04:55:45.737Z,100
2022-11-23T05:05:45.810Z,100
2022-11-23T05:15:46.490Z,100
2022-11-23T05:25:46.760Z,100
2022-11-23T05:35:47.607Z,100
2022-11-23T05:45:48.557Z,100
2022-11-23T05:55:49.072Z,100
2022-11-23T06:05:49.147Z,100
2022-11-23T06:15:49.998Z,100
2022-11-23T06:25:50.170Z,100
2022-11-23T06:35:50.344Z,100
2022-11-23T06:45:50.476Z,100
2022-11-23T06:55:50.887Z,100
2022-11-23T07:05:51.550Z,100
2022-11-23T07:15:52.136Z,100
2022-11-23T07:25:52.478Z,100
2022-11-23T07:35:52.831Z,100
2022-11-23T07:45:53.286Z,100
2022-11-23T07:55:54.256Z,100
2022-11-23T08:05:54.588Z,100
2022-11-23T08:15:56.032Z,100
2022-11-23T08:25:55.512Z,100
2022-11-23T08:35:55.863Z,100
2022-11-23T08:46:00.223Z,100
2022-11-23T08:55:57.183Z,100
2022-11-23T09:05:57.359Z,100
2022-11-23T09:15:57.978Z,100
2022-11-23T09:25:58.214Z,100
2022-11-23T09:26:20.156Z,100
2022-11-23T09:36:04.037Z,100
2022-11-23T09:46:04.624Z,100
2022-11-23T09:56:04.964Z,100
2022-11-23T10:06:05.410Z,100
2022-11-23T10:16:05.559Z,100
2022-11-23T10:36:06.339Z,100
2022-11-23T10:46:06.849Z,100
2022-11-23T10:56:06.951Z,100
2022-11-23T11:16:08.258Z,99
2022-11-23T11:26:08.912Z,98
2022-11-23T11:36:09.511Z,97
2022-11-23T11:46:28.872Z,97
2022-11-23T11:56:10.704Z,96
2022-11-23T12:06:11.097Z,96
2022-11-23T12:16:11.849Z,95
2022-11-23T12:26:12.256Z,94
2022-11-23T12:46:13.548Z,94
2022-11-23T12:56:14.623Z,93
2022-11-23T13:06:14.924Z,93
2022-11-23T13:16:16.032Z,92
2022-11-23T13:26:16.760Z,91
2022-11-23T13:36:19.888Z,91
2022-11-23T13:46:17.837Z,91
2022-11-23T13:56:18.158Z,91
2022-11-23T14:06:18.988Z,91
2022-11-23T14:16:19.888Z,90
2022-11-23T14:26:20.851Z,90
2022-11-23T14:36:21.323Z,90
2022-11-23T14:46:21.514Z,90
2022-11-23T14:56:21.957Z,90
2022-11-23T15:06:22.208Z,90
2022-11-23T15:16:23.179Z,90
2022-11-23T15:26:42.328Z,90
2022-11-23T15:36:24.253Z,90
2022-11-23T15:46:24.920Z,91
2022-11-23T16:06:25.827Z,91
2022-11-23T16:16:26.873Z,91
2022-11-23T16:26:27.704Z,91
2022-11-23T16:36:28.007Z,91
2022-11-23T16:46:28.239Z,92
2022-11-23T16:56:29.090Z,92
2022-11-23T17:06:29.636Z,92
2022-11-23T17:16:29.775Z,92
2022-11-23T17:26:30.723Z,92
2022-11-23T17:36:30.883Z,93
2022-11-23T17:46:31.093Z,94
2022-11-23T17:56:31.967Z,95
2022-11-23T18:06:32.505Z,96
2022-11-23T18:16:33.308Z,96
2022-11-23T18:26:34.094Z,97
2022-11-23T18:36:35.153Z,97
2022-11-23T18:46:36.254Z,97
2022-11-23T18:56:36.639Z,97
2022-11-23T19:06:37.426Z,98
2022-11-23T19:16:38.225Z,98
2022-11-23T19:26:38.568Z,98
2022-11-23T19:36:39.294Z,98
2022-11-23T19:46:40.106Z,98
2022-11-23T19:56:40.863Z,98
2022-11-23T20:06:41.833Z,98
2022-11-23T20:16:42.250Z,98
2022-11-23T20:36:43.050Z,99
2022-11-23T20:47:02.543Z,99
2022-11-23T20:56:43.688Z,99
2022-11-23T21:16:43.984Z,99
2022-11-23T21:26:45.017Z,99
2022-11-23T21:36:45.584Z,99
2022-11-23T21:56:46.904Z,99
2022-11-23T22:16:47.739Z,100
2022-11-23T22:26:48.049Z,100
2022-11-23T22:36:48.169Z,100
2022-11-23T22:46:48.583Z,100
2022-11-23T22:56:49.212Z,100
2022-11-23T23:06:50.071Z,100
2022-11-23T23:16:50.608Z,100
2022-11-23T23:26:50.805Z,100
2022-11-23T23:36:51.278Z,100
2022-11-23T23:46:52.030Z,100
2022-11-23T23:56:52.326Z,100
